sensor_id;sensor_type;location;lat;lon;timestamp;P1;durP1;ratioP1;P2;durP2;ratioP2
50122;SDS011;36021;48.670;6.184;2022-08-20T00:00:37;1.75;;;0.80;;
50122;SDS011;36021;48.670;6.184;2022-08-20T00:03:07;1.23;;;0.82;;
50122;SDS011;36021;48.670;6.184;2022-08-20T00:05:43;1.23;;;0.93;;
50122;SDS011;36021;48.670;6.184;2022-08-20T00:08:12;1.00;;;0.90;;
50122;SDS011;36021;48.670;6.184;2022-08-20T00:10:41;9.15;;;1.08;;
50122;SDS011;36021;48.670;6.184;2022-08-20T00:13:09;1.13;;;0.68;;
50122;SDS011;36021;48.670;6.184;2022-08-20T00:15:37;2.35;;;0.95;;
50122;SDS011;36021;48.670;6.184;2022-08-20T00:18:03;2.45;;;0.77;;
50122;SDS011;36021;48.670;6.184;2022-08-20T00:20:34;1.08;;;0.80;;
50122;SDS011;36021;48.670;6.184;2022-08-20T00:23:02;0.88;;;0.75;;
50122;SDS011;36021;48.670;6.184;2022-08-20T00:25:29;1.15;;;0.93;;
50122;SDS011;36021;48.670;6.184;2022-08-20T00:27:55;3.42;;;0.88;;
50122;SDS011;36021;48.670;6.184;2022-08-20T00:30:22;1.40;;;1.00;;
50122;SDS011;36021;48.670;6.184;2022-08-20T00:32:52;1.13;;;1.00;;
50122;SDS011;36021;48.670;6.184;2022-08-20T00:35:21;1.88;;;0.90;;
50122;SDS011;36021;48.670;6.184;2022-08-20T00:37:50;4.78;;;0.88;;
50122;SDS011;36021;48.670;6.184;2022-08-20T00:40:19;0.80;;;0.70;;
50122;SDS011;36021;48.670;6.184;2022-08-20T00:42:52;1.00;;;0.70;;
50122;SDS011;36021;48.670;6.184;2022-08-20T00:45:22;0.70;;;0.70;;
50122;SDS011;36021;48.670;6.184;2022-08-20T00:47:52;0.52;;;0.52;;
50122;SDS011;36021;48.670;6.184;2022-08-20T00:50:21;0.52;;;0.50;;
50122;SDS011;36021;48.670;6.184;2022-08-20T00:52:51;0.70;;;0.55;;
50122;SDS011;36021;48.670;6.184;2022-08-20T00:55:19;1.05;;;0.88;;
50122;SDS011;36021;48.670;6.184;2022-08-20T00:57:52;2.40;;;0.73;;
50122;SDS011;36021;48.670;6.184;2022-08-20T01:00:31;1.83;;;0.60;;
50122;SDS011;36021;48.670;6.184;2022-08-20T01:03:03;1.92;;;0.93;;
50122;SDS011;36021;48.670;6.184;2022-08-20T01:05:32;1.67;;;0.65;;
50122;SDS011;36021;48.670;6.184;2022-08-20T01:07:59;0.80;;;0.40;;
50122;SDS011;36021;48.670;6.184;2022-08-20T01:10:26;1.00;;;0.82;;
50122;SDS011;36021;48.670;6.184;2022-08-20T01:12:54;1.20;;;0.65;;
50122;SDS011;36021;48.670;6.184;2022-08-20T01:15:23;1.52;;;0.85;;
50122;SDS011;36021;48.670;6.184;2022-08-20T01:17:53;2.53;;;0.80;;
50122;SDS011;36021;48.670;6.184;2022-08-20T01:20:36;2.35;;;0.60;;
50122;SDS011;36021;48.670;6.184;2022-08-20T01:28:47;2.38;;;1.02;;
50122;SDS011;36021;48.670;6.184;2022-08-20T01:31:14;1.45;;;1.05;;
50122;SDS011;36021;48.670;6.184;2022-08-20T01:33:45;0.80;;;0.50;;
50122;SDS011;36021;48.670;6.184;2022-08-20T01:36:13;0.88;;;0.60;;
50122;SDS011;36021;48.670;6.184;2022-08-20T01:38:40;2.53;;;0.60;;
50122;SDS011;36021;48.670;6.184;2022-08-20T01:44:08;0.80;;;0.65;;
50122;SDS011;36021;48.670;6.184;2022-08-20T01:46:38;0.45;;;0.40;;
50122;SDS011;36021;48.670;6.184;2022-08-20T01:49:19;0.95;;;0.40;;
50122;SDS011;36021;48.670;6.184;2022-08-20T01:52:00;0.90;;;0.60;;
50122;SDS011;36021;48.670;6.184;2022-08-20T01:54:29;0.43;;;0.40;;
50122;SDS011;36021;48.670;6.184;2022-08-20T01:59:27;1.38;;;0.60;;
50122;SDS011;36021;48.670;6.184;2022-08-20T02:01:55;1.23;;;0.38;;
50122;SDS011;36021;48.670;6.184;2022-08-20T02:04:22;0.55;;;0.43;;
50122;SDS011;36021;48.670;6.184;2022-08-20T02:06:51;0.63;;;0.32;;
50122;SDS011;36021;48.670;6.184;2022-08-20T02:09:20;0.80;;;0.60;;
50122;SDS011;36021;48.670;6.184;2022-08-20T02:11:46;0.40;;;0.20;;
50122;SDS011;36021;48.670;6.184;2022-08-20T02:14:13;0.52;;;0.30;;
50122;SDS011;36021;48.670;6.184;2022-08-20T02:16:40;1.60;;;0.40;;
50122;SDS011;36021;48.670;6.184;2022-08-20T02:19:10;0.90;;;0.40;;
50122;SDS011;36021;48.670;6.184;2022-08-20T02:21:43;1.10;;;0.52;;
50122;SDS011;36021;48.670;6.184;2022-08-20T02:24:12;0.63;;;0.60;;
50122;SDS011;36021;48.670;6.184;2022-08-20T02:26:38;7.50;;;0.60;;
50122;SDS011;36021;48.670;6.184;2022-08-20T02:29:06;0.57;;;0.35;;
50122;SDS011;36021;48.670;6.184;2022-08-20T02:31:34;1.75;;;0.30;;
50122;SDS011;36021;48.670;6.184;2022-08-20T02:34:03;0.47;;;0.30;;
50122;SDS011;36021;48.670;6.184;2022-08-20T02:36:30;0.55;;;0.40;;
50122;SDS011;36021;48.670;6.184;2022-08-20T02:38:56;0.30;;;0.30;;
50122;SDS011;36021;48.670;6.184;2022-08-20T02:41:21;0.28;;;0.28;;
50122;SDS011;36021;48.670;6.184;2022-08-20T02:43:47;1.35;;;0.50;;
50122;SDS011;36021;48.670;6.184;2022-08-20T02:46:15;0.30;;;0.30;;
50122;SDS011;36021;48.670;6.184;2022-08-20T02:48:43;0.53;;;0.50;;
50122;SDS011;36021;48.670;6.184;2022-08-20T02:51:09;0.40;;;0.40;;
50122;SDS011;36021;48.670;6.184;2022-08-20T02:53:35;0.30;;;0.30;;
50122;SDS011;36021;48.670;6.184;2022-08-20T02:56:06;3.08;;;0.43;;
50122;SDS011;36021;48.670;6.184;2022-08-20T02:58:33;0.30;;;0.30;;
50122;SDS011;36021;48.670;6.184;2022-08-20T03:01:00;0.88;;;0.43;;
50122;SDS011;36021;48.670;6.184;2022-08-20T03:03:27;1.25;;;0.73;;
50122;SDS011;36021;48.670;6.184;2022-08-20T03:05:54;1.08;;;0.50;;
50122;SDS011;36021;48.670;6.184;2022-08-20T03:08:21;0.40;;;0.40;;
50122;SDS011;36021;48.670;6.184;2022-08-20T03:10:51;0.22;;;0.22;;
50122;SDS011;36021;48.670;6.184;2022-08-20T03:13:18;0.52;;;0.35;;
50122;SDS011;36021;48.670;6.184;2022-08-20T03:15:50;0.50;;;0.28;;
50122;SDS011;36021;48.670;6.184;2022-08-20T03:18:18;0.35;;;0.35;;
50122;SDS011;36021;48.670;6.184;2022-08-20T03:20:45;0.50;;;0.30;;
50122;SDS011;36021;48.670;6.184;2022-08-20T03:23:12;0.40;;;0.40;;
50122;SDS011;36021;48.670;6.184;2022-08-20T03:25:38;0.68;;;0.50;;
50122;SDS011;36021;48.670;6.184;2022-08-20T03:28:04;1.65;;;0.38;;
50122;SDS011;36021;48.670;6.184;2022-08-20T03:30:30;0.65;;;0.65;;
50122;SDS011;36021;48.670;6.184;2022-08-20T03:32:57;0.47;;;0.35;;
50122;SDS011;36021;48.670;6.184;2022-08-20T03:35:24;0.75;;;0.30;;
50122;SDS011;36021;48.670;6.184;2022-08-20T03:37:51;0.20;;;0.20;;
50122;SDS011;36021;48.670;6.184;2022-08-20T03:40:21;0.30;;;0.30;;
50122;SDS011;36021;48.670;6.184;2022-08-20T03:42:52;0.45;;;0.30;;
50122;SDS011;36021;48.670;6.184;2022-08-20T03:45:18;0.35;;;0.32;;
50122;SDS011;36021;48.670;6.184;2022-08-20T03:47:45;1.75;;;0.70;;
50122;SDS011;36021;48.670;6.184;2022-08-20T03:50:11;0.43;;;0.40;;
50122;SDS011;36021;48.670;6.184;2022-08-20T03:52:37;0.50;;;0.50;;
50122;SDS011;36021;48.670;6.184;2022-08-20T03:55:05;0.40;;;0.20;;
50122;SDS011;36021;48.670;6.184;2022-08-20T03:57:32;0.57;;;0.30;;
50122;SDS011;36021;48.670;6.184;2022-08-20T03:59:59;0.32;;;0.17;;
50122;SDS011;36021;48.670;6.184;2022-08-20T04:02:27;1.55;;;0.30;;
50122;SDS011;36021;48.670;6.184;2022-08-20T04:04:52;0.60;;;0.32;;
50122;SDS011;36021;48.670;6.184;2022-08-20T04:07:20;0.50;;;0.40;;
50122;SDS011;36021;48.670;6.184;2022-08-20T04:09:54;0.30;;;0.30;;
50122;SDS011;36021;48.670;6.184;2022-08-20T04:12:21;0.95;;;0.30;;
50122;SDS011;36021;48.670;6.184;2022-08-20T04:14:48;2.80;;;0.50;;
50122;SDS011;36021;48.670;6.184;2022-08-20T04:17:15;0.30;;;0.30;;
50122;SDS011;36021;48.670;6.184;2022-08-20T04:19:43;0.57;;;0.40;;
50122;SDS011;36021;48.670;6.184;2022-08-20T04:22:09;0.28;;;0.28;;
50122;SDS011;36021;48.670;6.184;2022-08-20T04:24:38;0.90;;;0.57;;
50122;SDS011;36021;48.670;6.184;2022-08-20T04:27:08;0.40;;;0.40;;
50122;SDS011;36021;48.670;6.184;2022-08-20T04:29:34;1.20;;;0.70;;
50122;SDS011;36021;48.670;6.184;2022-08-20T04:32:02;1.85;;;0.40;;
50122;SDS011;36021;48.670;6.184;2022-08-20T04:34:30;0.38;;;0.38;;
50122;SDS011;36021;48.670;6.184;2022-08-20T04:36:59;2.65;;;0.60;;
50122;SDS011;36021;48.670;6.184;2022-08-20T04:39:25;0.75;;;0.45;;
50122;SDS011;36021;48.670;6.184;2022-08-20T04:41:51;2.33;;;0.90;;
50122;SDS011;36021;48.670;6.184;2022-08-20T04:44:17;0.55;;;0.50;;
50122;SDS011;36021;48.670;6.184;2022-08-20T04:46:43;0.85;;;0.55;;
50122;SDS011;36021;48.670;6.184;2022-08-20T04:49:09;0.73;;;0.50;;
50122;SDS011;36021;48.670;6.184;2022-08-20T04:51:34;0.65;;;0.52;;
50122;SDS011;36021;48.670;6.184;2022-08-20T04:54:00;3.17;;;0.93;;
50122;SDS011;36021;48.670;6.184;2022-08-20T04:56:28;0.95;;;0.65;;
50122;SDS011;36021;48.670;6.184;2022-08-20T04:58:57;0.60;;;0.60;;
50122;SDS011;36021;48.670;6.184;2022-08-20T05:01:26;2.58;;;0.60;;
50122;SDS011;36021;48.670;6.184;2022-08-20T05:03:55;0.38;;;0.38;;
50122;SDS011;36021;48.670;6.184;2022-08-20T05:06:23;0.88;;;0.60;;
50122;SDS011;36021;48.670;6.184;2022-08-20T05:08:51;0.73;;;0.55;;
50122;SDS011;36021;48.670;6.184;2022-08-20T05:11:17;0.32;;;0.32;;
50122;SDS011;36021;48.670;6.184;2022-08-20T05:13:45;0.65;;;0.57;;
50122;SDS011;36021;48.670;6.184;2022-08-20T05:16:11;0.43;;;0.40;;
50122;SDS011;36021;48.670;6.184;2022-08-20T05:18:37;0.75;;;0.50;;
50122;SDS011;36021;48.670;6.184;2022-08-20T05:21:03;0.95;;;0.60;;
50122;SDS011;36021;48.670;6.184;2022-08-20T05:23:32;1.38;;;0.60;;
50122;SDS011;36021;48.670;6.184;2022-08-20T05:26:00;1.95;;;0.70;;
50122;SDS011;36021;48.670;6.184;2022-08-20T05:28:29;0.80;;;0.50;;
50122;SDS011;36021;48.670;6.184;2022-08-20T05:30:57;0.85;;;0.40;;
50122;SDS011;36021;48.670;6.184;2022-08-20T05:35:53;1.17;;;0.70;;
50122;SDS011;36021;48.670;6.184;2022-08-20T05:38:20;2.85;;;1.00;;
50122;SDS011;36021;48.670;6.184;2022-08-20T05:40:48;2.13;;;0.90;;
50122;SDS011;36021;48.670;6.184;2022-08-20T05:43:15;2.50;;;1.23;;
50122;SDS011;36021;48.670;6.184;2022-08-20T05:45:42;1.65;;;1.25;;
50122;SDS011;36021;48.670;6.184;2022-08-20T05:48:11;4.05;;;1.10;;
50122;SDS011;36021;48.670;6.184;2022-08-20T05:50:42;1.70;;;1.13;;
50122;SDS011;36021;48.670;6.184;2022-08-20T05:53:09;1.48;;;1.20;;
50122;SDS011;36021;48.670;6.184;2022-08-20T05:55:36;1.73;;;1.23;;
50122;SDS011;36021;48.670;6.184;2022-08-20T05:58:04;3.92;;;1.65;;
50122;SDS011;36021;48.670;6.184;2022-08-20T06:00:32;1.75;;;1.27;;
50122;SDS011;36021;48.670;6.184;2022-08-20T06:02:58;1.05;;;0.93;;
50122;SDS011;36021;48.670;6.184;2022-08-20T06:05:42;1.27;;;0.93;;
50122;SDS011;36021;48.670;6.184;2022-08-20T06:08:09;0.98;;;0.90;;
50122;SDS011;36021;48.670;6.184;2022-08-20T06:10:35;3.38;;;1.48;;
50122;SDS011;36021;48.670;6.184;2022-08-20T06:13:02;1.67;;;1.10;;
50122;SDS011;36021;48.670;6.184;2022-08-20T06:15:29;1.13;;;1.00;;
50122;SDS011;36021;48.670;6.184;2022-08-20T06:17:55;1.58;;;1.35;;
50122;SDS011;36021;48.670;6.184;2022-08-20T06:20:22;1.98;;;1.33;;
50122;SDS011;36021;48.670;6.184;2022-08-20T06:22:47;1.48;;;1.23;;
50122;SDS011;36021;48.670;6.184;2022-08-20T06:25:13;1.20;;;0.90;;
50122;SDS011;36021;48.670;6.184;2022-08-20T06:27:41;1.92;;;1.23;;
50122;SDS011;36021;48.670;6.184;2022-08-20T06:30:08;3.10;;;1.45;;
50122;SDS011;36021;48.670;6.184;2022-08-20T06:32:36;3.63;;;1.08;;
50122;SDS011;36021;48.670;6.184;2022-08-20T06:35:03;1.80;;;1.17;;
50122;SDS011;36021;48.670;6.184;2022-08-20T06:37:32;2.78;;;1.27;;
50122;SDS011;36021;48.670;6.184;2022-08-20T06:40:02;4.22;;;1.00;;
50122;SDS011;36021;48.670;6.184;2022-08-20T06:42:37;3.25;;;1.00;;
50122;SDS011;36021;48.670;6.184;2022-08-20T06:45:12;1.42;;;0.95;;
50122;SDS011;36021;48.670;6.184;2022-08-20T06:47:39;4.45;;;1.70;;
50122;SDS011;36021;48.670;6.184;2022-08-20T06:50:08;1.38;;;0.95;;
50122;SDS011;36021;48.670;6.184;2022-08-20T06:52:36;1.58;;;1.05;;
50122;SDS011;36021;48.670;6.184;2022-08-20T06:55:03;1.70;;;0.90;;
50122;SDS011;36021;48.670;6.184;2022-08-20T06:57:30;0.88;;;0.88;;
50122;SDS011;36021;48.670;6.184;2022-08-20T06:59:57;1.35;;;1.02;;
50122;SDS011;36021;48.670;6.184;2022-08-20T07:02:22;1.27;;;1.00;;
50122;SDS011;36021;48.670;6.184;2022-08-20T07:04:49;1.80;;;1.23;;
50122;SDS011;36021;48.670;6.184;2022-08-20T07:07:15;3.58;;;1.10;;
50122;SDS011;36021;48.670;6.184;2022-08-20T07:09:42;2.78;;;1.40;;
50122;SDS011;36021;48.670;6.184;2022-08-20T07:12:08;2.25;;;1.70;;
50122;SDS011;36021;48.670;6.184;2022-08-20T07:14:34;6.68;;;1.50;;
50122;SDS011;36021;48.670;6.184;2022-08-20T07:17:03;1.63;;;1.23;;
50122;SDS011;36021;48.670;6.184;2022-08-20T07:19:30;6.07;;;1.27;;
50122;SDS011;36021;48.670;6.184;2022-08-20T07:21:55;2.38;;;1.55;;
50122;SDS011;36021;48.670;6.184;2022-08-20T07:24:23;1.95;;;1.25;;
50122;SDS011;36021;48.670;6.184;2022-08-20T07:26:50;0.68;;;0.68;;
50122;SDS011;36021;48.670;6.184;2022-08-20T07:29:17;4.20;;;1.25;;
50122;SDS011;36021;48.670;6.184;2022-08-20T07:31:43;4.18;;;1.13;;
50122;SDS011;36021;48.670;6.184;2022-08-20T07:34:28;3.03;;;0.90;;
50122;SDS011;36021;48.670;6.184;2022-08-20T07:36:58;4.32;;;1.15;;
50122;SDS011;36021;48.670;6.184;2022-08-20T07:39:24;1.20;;;0.90;;
50122;SDS011;36021;48.670;6.184;2022-08-20T07:41:50;1.80;;;1.17;;
50122;SDS011;36021;48.670;6.184;2022-08-20T07:44:30;1.83;;;1.23;;
50122;SDS011;36021;48.670;6.184;2022-08-20T07:46:57;2.17;;;1.27;;
50122;SDS011;36021;48.670;6.184;2022-08-20T07:49:23;2.88;;;1.10;;
50122;SDS011;36021;48.670;6.184;2022-08-20T07:51:49;2.63;;;0.82;;
50122;SDS011;36021;48.670;6.184;2022-08-20T07:54:15;3.83;;;1.20;;
50122;SDS011;36021;48.670;6.184;2022-08-20T07:56:40;1.23;;;0.82;;
50122;SDS011;36021;48.670;6.184;2022-08-20T07:59:06;2.95;;;1.25;;
50122;SDS011;36021;48.670;6.184;2022-08-20T08:01:33;3.28;;;0.68;;
50122;SDS011;36021;48.670;6.184;2022-08-20T08:03:59;2.25;;;0.88;;
50122;SDS011;36021;48.670;6.184;2022-08-20T08:06:25;1.23;;;0.95;;
50122;SDS011;36021;48.670;6.184;2022-08-20T08:08:52;4.80;;;1.05;;
50122;SDS011;36021;48.670;6.184;2022-08-20T08:11:18;4.03;;;1.42;;
50122;SDS011;36021;48.670;6.184;2022-08-20T08:13:44;6.22;;;1.73;;
50122;SDS011;36021;48.670;6.184;2022-08-20T08:16:11;4.28;;;1.55;;
50122;SDS011;36021;48.670;6.184;2022-08-20T08:18:46;4.93;;;1.30;;
50122;SDS011;36021;48.670;6.184;2022-08-20T08:21:14;3.80;;;1.13;;
50122;SDS011;36021;48.670;6.184;2022-08-20T08:23:41;2.60;;;0.93;;
50122;SDS011;36021;48.670;6.184;2022-08-20T08:26:14;3.92;;;0.80;;
50122;SDS011;36021;48.670;6.184;2022-08-20T08:28:41;2.13;;;0.70;;
50122;SDS011;36021;48.670;6.184;2022-08-20T08:31:08;2.20;;;1.03;;
50122;SDS011;36021;48.670;6.184;2022-08-20T08:33:34;2.05;;;0.88;;
50122;SDS011;36021;48.670;6.184;2022-08-20T08:36:09;2.00;;;1.25;;
50122;SDS011;36021;48.670;6.184;2022-08-20T08:38:37;4.20;;;1.30;;
50122;SDS011;36021;48.670;6.184;2022-08-20T08:43:51;3.50;;;0.70;;
50122;SDS011;36021;48.670;6.184;2022-08-20T08:46:25;1.35;;;1.27;;
50122;SDS011;36021;48.670;6.184;2022-08-20T08:48:53;6.35;;;0.82;;
50122;SDS011;36021;48.670;6.184;2022-08-20T08:51:35;1.40;;;0.95;;
50122;SDS011;36021;48.670;6.184;2022-08-20T08:54:04;2.00;;;0.73;;
50122;SDS011;36021;48.670;6.184;2022-08-20T08:56:32;0.70;;;0.60;;
50122;SDS011;36021;48.670;6.184;2022-08-20T08:59:04;1.52;;;0.85;;
50122;SDS011;36021;48.670;6.184;2022-08-20T09:01:34;4.95;;;1.33;;
50122;SDS011;36021;48.670;6.184;2022-08-20T09:04:15;3.10;;;1.15;;
50122;SDS011;36021;48.670;6.184;2022-08-20T09:06:43;3.20;;;1.13;;
50122;SDS011;36021;48.670;6.184;2022-08-20T09:09:21;1.33;;;1.00;;
50122;SDS011;36021;48.670;6.184;2022-08-20T09:11:52;4.43;;;1.27;;
50122;SDS011;36021;48.670;6.184;2022-08-20T09:14:23;3.25;;;1.45;;
50122;SDS011;36021;48.670;6.184;2022-08-20T09:16:49;5.15;;;1.33;;
50122;SDS011;36021;48.670;6.184;2022-08-20T09:19:15;5.63;;;1.50;;
50122;SDS011;36021;48.670;6.184;2022-08-20T09:21:41;4.38;;;1.13;;
50122;SDS011;36021;48.670;6.184;2022-08-20T09:24:07;4.63;;;1.83;;
50122;SDS011;36021;48.670;6.184;2022-08-20T09:26:33;2.55;;;1.38;;
50122;SDS011;36021;48.670;6.184;2022-08-20T09:28:58;1.98;;;1.08;;
50122;SDS011;36021;48.670;6.184;2022-08-20T09:31:24;5.25;;;1.00;;
50122;SDS011;36021;48.670;6.184;2022-08-20T09:33:51;4.22;;;1.00;;
50122;SDS011;36021;48.670;6.184;2022-08-20T09:36:17;4.07;;;1.48;;
50122;SDS011;36021;48.670;6.184;2022-08-20T09:38:43;4.07;;;1.52;;
50122;SDS011;36021;48.670;6.184;2022-08-20T09:41:08;2.13;;;1.40;;
50122;SDS011;36021;48.670;6.184;2022-08-20T09:43:34;1.50;;;1.08;;
50122;SDS011;36021;48.670;6.184;2022-08-20T09:46:00;10.70;;;1.02;;
50122;SDS011;36021;48.670;6.184;2022-08-20T09:48:26;2.30;;;1.30;;
50122;SDS011;36021;48.670;6.184;2022-08-20T09:50:51;4.95;;;1.10;;
50122;SDS011;36021;48.670;6.184;2022-08-20T09:53:18;3.65;;;1.25;;
50122;SDS011;36021;48.670;6.184;2022-08-20T09:55:47;3.00;;;1.83;;
50122;SDS011;36021;48.670;6.184;2022-08-20T09:58:33;1.02;;;0.77;;
50122;SDS011;36021;48.670;6.184;2022-08-20T10:03:42;3.08;;;1.27;;
50122;SDS011;36021;48.670;6.184;2022-08-20T10:06:09;2.80;;;1.33;;
50122;SDS011;36021;48.670;6.184;2022-08-20T10:08:38;1.75;;;1.35;;
50122;SDS011;36021;48.670;6.184;2022-08-20T10:11:04;1.73;;;0.93;;
50122;SDS011;36021;48.670;6.184;2022-08-20T10:13:30;3.80;;;1.35;;
50122;SDS011;36021;48.670;6.184;2022-08-20T10:15:55;3.53;;;0.90;;
50122;SDS011;36021;48.670;6.184;2022-08-20T10:18:21;4.45;;;1.65;;
50122;SDS011;36021;48.670;6.184;2022-08-20T10:20:47;8.98;;;1.30;;
50122;SDS011;36021;48.670;6.184;2022-08-20T10:23:12;3.05;;;1.00;;
50122;SDS011;36021;48.670;6.184;2022-08-20T10:25:38;1.90;;;0.73;;
50122;SDS011;36021;48.670;6.184;2022-08-20T10:28:05;2.40;;;1.17;;
50122;SDS011;36021;48.670;6.184;2022-08-20T10:30:31;5.32;;;1.17;;
50122;SDS011;36021;48.670;6.184;2022-08-20T10:32:57;3.08;;;0.88;;
50122;SDS011;36021;48.670;6.184;2022-08-20T10:35:22;4.25;;;0.95;;
50122;SDS011;36021;48.670;6.184;2022-08-20T10:37:49;1.48;;;0.88;;
50122;SDS011;36021;48.670;6.184;2022-08-20T10:40:14;2.58;;;0.93;;
50122;SDS011;36021;48.670;6.184;2022-08-20T10:42:41;1.83;;;0.98;;
50122;SDS011;36021;48.670;6.184;2022-08-20T10:45:08;1.38;;;0.93;;
50122;SDS011;36021;48.670;6.184;2022-08-20T10:47:39;1.13;;;0.75;;
50122;SDS011;36021;48.670;6.184;2022-08-20T10:50:05;2.38;;;1.05;;
50122;SDS011;36021;48.670;6.184;2022-08-20T10:52:33;4.13;;;1.00;;
50122;SDS011;36021;48.670;6.184;2022-08-20T10:54:58;3.40;;;0.80;;
50122;SDS011;36021;48.670;6.184;2022-08-20T10:57:26;1.88;;;1.00;;
50122;SDS011;36021;48.670;6.184;2022-08-20T10:59:54;2.45;;;1.23;;
50122;SDS011;36021;48.670;6.184;2022-08-20T11:02:22;3.72;;;1.13;;
50122;SDS011;36021;48.670;6.184;2022-08-20T11:04:49;2.30;;;0.90;;
50122;SDS011;36021;48.670;6.184;2022-08-20T11:07:20;3.10;;;1.00;;
50122;SDS011;36021;48.670;6.184;2022-08-20T11:09:50;1.00;;;0.80;;
50122;SDS011;36021;48.670;6.184;2022-08-20T11:12:16;2.90;;;0.90;;
50122;SDS011;36021;48.670;6.184;2022-08-20T11:14:44;4.72;;;1.33;;
50122;SDS011;36021;48.670;6.184;2022-08-20T11:17:11;1.83;;;1.00;;
50122;SDS011;36021;48.670;6.184;2022-08-20T11:19:38;1.45;;;0.95;;
50122;SDS011;36021;48.670;6.184;2022-08-20T11:22:05;2.97;;;1.02;;
50122;SDS011;36021;48.670;6.184;2022-08-20T11:24:33;3.70;;;1.00;;
50122;SDS011;36021;48.670;6.184;2022-08-20T11:27:00;1.38;;;1.10;;
50122;SDS011;36021;48.670;6.184;2022-08-20T11:29:27;1.92;;;0.82;;
50122;SDS011;36021;48.670;6.184;2022-08-20T11:31:52;2.72;;;0.90;;
50122;SDS011;36021;48.670;6.184;2022-08-20T11:34:19;0.98;;;0.85;;
50122;SDS011;36021;48.670;6.184;2022-08-20T11:36:46;1.15;;;0.73;;
50122;SDS011;36021;48.670;6.184;2022-08-20T11:39:13;3.20;;;1.10;;
50122;SDS011;36021;48.670;6.184;2022-08-20T11:41:39;1.92;;;1.08;;
50122;SDS011;36021;48.670;6.184;2022-08-20T11:44:04;3.92;;;1.02;;
50122;SDS011;36021;48.670;6.184;2022-08-20T11:46:30;2.38;;;0.80;;
50122;SDS011;36021;48.670;6.184;2022-08-20T11:48:57;6.22;;;1.10;;
50122;SDS011;36021;48.670;6.184;2022-08-20T11:51:23;2.03;;;1.25;;
50122;SDS011;36021;48.670;6.184;2022-08-20T11:53:49;5.63;;;1.25;;
50122;SDS011;36021;48.670;6.184;2022-08-20T11:56:15;4.47;;;1.65;;
50122;SDS011;36021;48.670;6.184;2022-08-20T11:58:42;2.08;;;0.90;;
50122;SDS011;36021;48.670;6.184;2022-08-20T12:01:08;5.80;;;1.02;;
50122;SDS011;36021;48.670;6.184;2022-08-20T12:03:33;3.20;;;1.63;;
50122;SDS011;36021;48.670;6.184;2022-08-20T12:05:59;2.35;;;1.05;;
50122;SDS011;36021;48.670;6.184;2022-08-20T12:08:25;1.75;;;0.80;;
50122;SDS011;36021;48.670;6.184;2022-08-20T12:10:51;4.35;;;1.00;;
50122;SDS011;36021;48.670;6.184;2022-08-20T12:13:16;3.20;;;1.10;;
50122;SDS011;36021;48.670;6.184;2022-08-20T12:15:42;0.93;;;0.65;;
50122;SDS011;36021;48.670;6.184;2022-08-20T12:18:08;0.70;;;0.65;;
50122;SDS011;36021;48.670;6.184;2022-08-20T12:20:34;3.22;;;0.90;;
50122;SDS011;36021;48.670;6.184;2022-08-20T12:23:02;2.90;;;0.88;;
50122;SDS011;36021;48.670;6.184;2022-08-20T12:25:28;5.25;;;0.90;;
50122;SDS011;36021;48.670;6.184;2022-08-20T12:27:56;2.45;;;0.70;;
50122;SDS011;36021;48.670;6.184;2022-08-20T12:30:23;2.95;;;1.00;;
50122;SDS011;36021;48.670;6.184;2022-08-20T12:32:49;1.73;;;0.70;;
50122;SDS011;36021;48.670;6.184;2022-08-20T12:35:16;1.25;;;0.80;;
50122;SDS011;36021;48.670;6.184;2022-08-20T12:40:11;2.08;;;0.80;;
50122;SDS011;36021;48.670;6.184;2022-08-20T12:42:41;2.20;;;0.90;;
50122;SDS011;36021;48.670;6.184;2022-08-20T12:45:07;2.25;;;1.25;;
50122;SDS011;36021;48.670;6.184;2022-08-20T12:47:34;3.00;;;0.88;;
50122;SDS011;36021;48.670;6.184;2022-08-20T12:52:32;3.15;;;1.10;;
50122;SDS011;36021;48.670;6.184;2022-08-20T12:54:58;2.15;;;0.55;;
50122;SDS011;36021;48.670;6.184;2022-08-20T12:57:28;3.83;;;1.45;;
50122;SDS011;36021;48.670;6.184;2022-08-20T13:00:00;1.52;;;0.90;;
50122;SDS011;36021;48.670;6.184;2022-08-20T13:02:31;1.88;;;0.88;;
50122;SDS011;36021;48.670;6.184;2022-08-20T13:04:57;3.40;;;1.13;;
50122;SDS011;36021;48.670;6.184;2022-08-20T13:07:22;2.08;;;0.93;;
50122;SDS011;36021;48.670;6.184;2022-08-20T13:09:48;1.77;;;0.73;;
50122;SDS011;36021;48.670;6.184;2022-08-20T13:12:14;0.90;;;0.80;;
50122;SDS011;36021;48.670;6.184;2022-08-20T13:14:40;1.35;;;1.00;;
50122;SDS011;36021;48.670;6.184;2022-08-20T13:17:07;3.00;;;0.90;;
50122;SDS011;36021;48.670;6.184;2022-08-20T13:19:33;1.90;;;0.80;;
50122;SDS011;36021;48.670;6.184;2022-08-20T13:22:01;1.80;;;0.93;;
50122;SDS011;36021;48.670;6.184;2022-08-20T13:24:28;2.72;;;1.35;;
50122;SDS011;36021;48.670;6.184;2022-08-20T13:27:28;0.85;;;0.60;;
50122;SDS011;36021;48.670;6.184;2022-08-20T13:29:49;1.88;;;0.65;;
50122;SDS011;36021;48.670;6.184;2022-08-20T13:32:18;3.17;;;0.90;;
50122;SDS011;36021;48.670;6.184;2022-08-20T13:34:46;2.90;;;0.88;;
50122;SDS011;36021;48.670;6.184;2022-08-20T13:39:38;3.08;;;1.00;;
50122;SDS011;36021;48.670;6.184;2022-08-20T13:42:04;4.97;;;1.10;;
50122;SDS011;36021;48.670;6.184;2022-08-20T13:44:31;1.92;;;1.00;;
50122;SDS011;36021;48.670;6.184;2022-08-20T13:46:56;2.25;;;0.57;;
50122;SDS011;36021;48.670;6.184;2022-08-20T13:49:22;3.50;;;0.90;;
50122;SDS011;36021;48.670;6.184;2022-08-20T13:51:47;1.85;;;0.80;;
50122;SDS011;36021;48.670;6.184;2022-08-20T13:54:13;2.00;;;1.20;;
50122;SDS011;36021;48.670;6.184;2022-08-20T13:56:39;2.53;;;1.10;;
50122;SDS011;36021;48.670;6.184;2022-08-20T13:59:04;1.48;;;0.80;;
50122;SDS011;36021;48.670;6.184;2022-08-20T14:01:30;5.07;;;1.05;;
50122;SDS011;36021;48.670;6.184;2022-08-20T14:03:55;1.25;;;1.00;;
50122;SDS011;36021;48.670;6.184;2022-08-20T14:06:21;4.80;;;1.52;;
50122;SDS011;36021;48.670;6.184;2022-08-20T14:08:47;1.77;;;0.70;;
50122;SDS011;36021;48.670;6.184;2022-08-20T14:11:13;3.42;;;1.33;;
50122;SDS011;36021;48.670;6.184;2022-08-20T14:13:38;4.75;;;1.10;;
50122;SDS011;36021;48.670;6.184;2022-08-20T14:16:04;1.83;;;0.70;;
50122;SDS011;36021;48.670;6.184;2022-08-20T14:18:29;0.85;;;0.70;;
50122;SDS011;36021;48.670;6.184;2022-08-20T14:20:55;8.35;;;1.20;;
50122;SDS011;36021;48.670;6.184;2022-08-20T14:23:21;3.42;;;1.15;;
50122;SDS011;36021;48.670;6.184;2022-08-20T14:25:48;3.70;;;0.75;;
50122;SDS011;36021;48.670;6.184;2022-08-20T14:28:18;4.55;;;1.00;;
50122;SDS011;36021;48.670;6.184;2022-08-20T14:30:47;2.97;;;1.23;;
50122;SDS011;36021;48.670;6.184;2022-08-20T14:33:14;1.27;;;0.85;;
50122;SDS011;36021;48.670;6.184;2022-08-20T14:35:40;1.85;;;1.00;;
50122;SDS011;36021;48.670;6.184;2022-08-20T14:38:06;1.85;;;0.80;;
50122;SDS011;36021;48.670;6.184;2022-08-20T14:40:32;1.70;;;1.13;;
50122;SDS011;36021;48.670;6.184;2022-08-20T14:42:59;1.70;;;0.80;;
50122;SDS011;36021;48.670;6.184;2022-08-20T14:45:25;3.00;;;1.08;;
50122;SDS011;36021;48.670;6.184;2022-08-20T14:47:54;1.80;;;1.02;;
50122;SDS011;36021;48.670;6.184;2022-08-20T14:50:23;2.33;;;0.80;;
50122;SDS011;36021;48.670;6.184;2022-08-20T14:52:49;2.78;;;1.00;;
50122;SDS011;36021;48.670;6.184;2022-08-20T14:55:16;1.95;;;1.20;;
50122;SDS011;36021;48.670;6.184;2022-08-20T14:57:44;1.45;;;0.63;;
50122;SDS011;36021;48.670;6.184;2022-08-20T15:00:12;2.70;;;1.10;;
50122;SDS011;36021;48.670;6.184;2022-08-20T15:02:42;3.00;;;1.33;;
50122;SDS011;36021;48.670;6.184;2022-08-20T15:05:09;3.45;;;1.08;;
50122;SDS011;36021;48.670;6.184;2022-08-20T15:07:37;0.60;;;0.60;;
50122;SDS011;36021;48.670;6.184;2022-08-20T15:10:06;4.72;;;0.98;;
50122;SDS011;36021;48.670;6.184;2022-08-20T15:12:35;4.00;;;1.17;;
50122;SDS011;36021;48.670;6.184;2022-08-20T15:15:02;2.70;;;0.93;;
50122;SDS011;36021;48.670;6.184;2022-08-20T15:17:31;3.05;;;1.17;;